メインページ
METAR-TAF:

METAR-TAF

空港 :

クウェート国際空港

クウェート, クウェート

緯度: 29-13N, 経度: 047-59E, 海抜: 55m

現時点の気象観測

当レポートは46分前の20:00(UTC)に作成
無風
気温 13°C
湿度 82%
気圧 1022 hPa
視程10km以上
1,500メートル以下は雲なし、積乱雲なし

METAR: OKBK 112000Z 00000KT CAVOK 13/10 Q1022 NOSIG

時間: 23:46 (20:46 UTC)

予報

当レポートは4時間1分前の16:45(UTC)に作成
予報は11日の 18時(UTC)から 12日の 24時(UTC)まで有効
北西の風 10kt
視程: 7000m
晴天
11日の 18時(UTC)から 12日の 03時(UTC)まで一時的に
変向風 3kt
視程: 3000m

TAF: OKBK 111645Z 1118/1224 31010KT 7000 SKC TEMPO 1118/1203 VRB03KT 3000 BR

4,000以上の空港の気象観測と天気予報(METAR報とTAF報)

利用可能な観測所は地図上に黄色い丸と赤い丸で示す。

丸の上にカーソルを重ねると観測所名を参照できる。

次にクリックすると気象観測と天気予報を参照できる。

マップの切り替え:黒色「×」印の緑ボタンをクリックして拡大、「-」印の緑ボタンをクリックして縮小、緑色の三角印をクリックして隣りの地図に切り替え


METAR-TAF: